createdAt,value
2023-06-29T00:01:33.567Z,99845.46
2023-06-29T00:04:40.869Z,99834.56
2023-06-29T00:07:46.217Z,99837.46
2023-06-29T00:10:52.485Z,99843.45
2023-06-29T00:13:59.155Z,99835.84
2023-06-29T00:17:07.471Z,99833.77
2023-06-29T00:20:14.628Z,99838.34
2023-06-29T00:23:21.930Z,99837.08
2023-06-29T00:26:27.285Z,99833.39
2023-06-29T00:29:33.455Z,99821.13
2023-06-29T00:32:39.632Z,99826.47
2023-06-29T00:35:47.004Z,99826.41
2023-06-29T00:38:55.843Z,99819.63
2023-06-29T00:42:09.570Z,99813.10
2023-06-29T00:45:16.316Z,99803.66
2023-06-29T00:48:22.244Z,99801.88
2023-06-29T00:51:29.498Z,99802.41
2023-06-29T00:54:35.880Z,99797.41
2023-06-29T00:57:42.663Z,99793.27
2023-06-29T01:00:52.292Z,99784.69
2023-06-29T01:04:01.001Z,99781.92
2023-06-29T01:07:19.225Z,99782.78
2023-06-29T01:10:25.674Z,99778.08
2023-06-29T01:13:34.997Z,99777.25
2023-06-29T01:16:41.616Z,99778.08
2023-06-29T01:19:49.130Z,99782.55
2023-06-29T01:23:07.289Z,99773.41
2023-06-29T01:26:13.362Z,99775.31
2023-06-29T01:29:21.650Z,99771.17
2023-06-29T01:32:26.756Z,99771.17
2023-06-29T01:35:32.857Z,99771.63
2023-06-29T01:38:47.020Z,99773.80
2023-06-29T01:41:56.651Z,99771.49
2023-06-29T01:45:03.606Z,99769.16
2023-06-29T01:48:11.568Z,99762.17
2023-06-29T01:51:20.468Z,99760.10
2023-06-29T01:54:26.206Z,99761.38
2023-06-29T01:57:33.503Z,99760.55
2023-06-29T02:00:39.562Z,99762.91
2023-06-29T02:03:46.660Z,99764.52
2023-06-29T02:06:52.216Z,99765.27
2023-06-29T02:09:59.607Z,99764.64
2023-06-29T02:13:05.074Z,99763.19
2023-06-29T02:16:12.186Z,99768.41
2023-06-29T02:19:19.017Z,99759.27
2023-06-29T02:22:26.211Z,99754.28
2023-06-29T02:25:32.680Z,99761.73
2023-06-29T02:28:40.380Z,99757.59
2023-06-29T02:31:47.296Z,99763.41
2023-06-29T02:34:55.575Z,99762.33
2023-06-29T02:38:02.023Z,99758.82
2023-06-29T02:41:07.062Z,99754.23
2023-06-29T02:44:13.931Z,99744.90
2023-06-29T02:47:23.457Z,99752.09
2023-06-29T02:50:29.852Z,99739.75
2023-06-29T02:53:35.681Z,99744.59
2023-06-29T02:56:41.552Z,99741.48
2023-06-29T02:59:48.162Z,99747.39
2023-06-29T03:02:54.833Z,99745.86
2023-06-29T03:06:02.841Z,99739.12
2023-06-29T03:09:11.163Z,99737.91
2023-06-29T03:12:18.442Z,99731.47
2023-06-29T03:15:25.126Z,99725.27
2023-06-29T03:18:31.848Z,99742.00
2023-06-29T03:21:37.451Z,99735.78
2023-06-29T03:24:44.539Z,99737.09
2023-06-29T03:27:51.292Z,99735.39
2023-06-29T03:30:59.588Z,99737.98
2023-06-29T03:34:05.791Z,99743.44
2023-06-29T03:37:11.114Z,99739.98
2023-06-29T03:40:18.003Z,99751.48
2023-06-29T03:43:23.498Z,99746.45
2023-06-29T03:46:29.024Z,99747.13
2023-06-29T03:49:35.275Z,99754.20
2023-06-29T03:52:42.657Z,99758.47
2023-06-29T03:55:50.095Z,99759.77
2023-06-29T03:58:56.228Z,99761.54
2023-06-29T04:02:03.360Z,99771.08
2023-06-29T04:05:10.823Z,99769.29
2023-06-29T04:08:18.303Z,99761.77
2023-06-29T04:11:25.144Z,99762.83
2023-06-29T04:14:30.479Z,99764.41
2023-06-29T04:17:35.369Z,99761.47
2023-06-29T04:20:41.496Z,99756.41
2023-06-29T04:23:48.644Z,99752.08
2023-06-29T04:26:55.783Z,99751.72
2023-06-29T04:30:01.870Z,99748.24
2023-06-29T04:33:09.123Z,99748.67
2023-06-29T04:36:14.545Z,99749.05
2023-06-29T04:39:20.335Z,99748.95
2023-06-29T04:42:26.738Z,99744.42
2023-06-29T04:45:33.221Z,99748.80
2023-06-29T04:48:41.055Z,99744.30
2023-06-29T04:51:46.242Z,99746.16
2023-06-29T04:54:51.153Z,99742.50
2023-06-29T04:57:57.288Z,99739.38
2023-06-29T05:01:04.502Z,99731.77
2023-06-29T05:04:10.679Z,99731.66
2023-06-29T05:07:16.701Z,99727.94
2023-06-29T05:10:22.452Z,99727.23
2023-06-29T05:13:28.989Z,99733.19
2023-06-29T05:16:34.920Z,99730.05
2023-06-29T05:19:42.627Z,99718.84
2023-06-29T05:22:48.783Z,99716.22
2023-06-29T05:25:55.026Z,99713.80
2023-06-29T05:29:05.981Z,99721.18
2023-06-29T05:32:11.992Z,99713.58
2023-06-29T05:35:20.905Z,99710.59
2023-06-29T05:38:29.891Z,99714.86
2023-06-29T05:41:38.149Z,99706.37
2023-06-29T05:44:45.641Z,99709.89
2023-06-29T05:47:51.855Z,99702.80
2023-06-29T05:50:59.700Z,99712.13
2023-06-29T05:54:06.195Z,99709.77
2023-06-29T05:57:14.211Z,99701.83
2023-06-29T06:00:21.994Z,99701.42
2023-06-29T06:03:30.101Z,99701.84
2023-06-29T06:06:39.126Z,99704.71
2023-06-29T06:09:44.177Z,99703.77
2023-06-29T06:12:50.865Z,99697.80
2023-06-29T06:15:57.635Z,99699.59
2023-06-29T06:19:03.383Z,99699.73
2023-06-29T06:22:08.733Z,99706.29
2023-06-29T06:25:14.203Z,99693.73
2023-06-29T06:28:18.691Z,99703.03
2023-06-29T06:31:33.507Z,99698.97
2023-06-29T06:34:35.843Z,99688.19
2023-06-29T06:37:42.130Z,99694.83
2023-06-29T06:40:47.675Z,99698.73
2023-06-29T06:43:55.713Z,99699.95
2023-06-29T06:47:00.713Z,99692.88
2023-06-29T06:50:07.332Z,99690.98
2023-06-29T06:53:12.801Z,99683.77
2023-06-29T06:56:21.301Z,99684.37
2023-06-29T06:59:27.649Z,99685.03
2023-06-29T07:02:33.490Z,99678.12
2023-06-29T07:05:39.470Z,99670.36
2023-06-29T07:08:46.643Z,99670.36
2023-06-29T07:11:54.585Z,99666.19
2023-06-29T07:15:00.356Z,99659.28
2023-06-29T07:18:09.356Z,99655.72
2023-06-29T07:21:17.752Z,99656.13
2023-06-29T07:24:22.095Z,99661.02
2023-06-29T07:27:27.500Z,99659.70
2023-06-29T07:30:32.982Z,99662.60
2023-06-29T07:33:38.851Z,99663.52
2023-06-29T07:36:47.428Z,99664.91
2023-06-29T07:39:53.385Z,99656.84
2023-06-29T07:42:59.837Z,99666.96
2023-06-29T07:46:07.173Z,99654.55
2023-06-29T07:49:13.204Z,99652.95
2023-06-29T07:52:19.505Z,99660.30
2023-06-29T07:55:24.806Z,99660.48
2023-06-29T08:01:40.905Z,99665.66
2023-06-29T08:07:58.834Z,99666.02
2023-06-29T08:11:07.095Z,99663.84
2023-06-29T08:14:15.123Z,99661.13
2023-06-29T08:17:20.728Z,99653.07
2023-06-29T08:20:27.857Z,99656.91
2023-06-29T08:23:36.126Z,99665.28
2023-06-29T08:26:42.684Z,99665.02
2023-06-29T08:29:48.619Z,99678.14
2023-06-29T08:32:56.606Z,99667.77
2023-06-29T08:36:03.698Z,99667.41
2023-06-29T08:39:10.741Z,99671.23
2023-06-29T08:42:17.300Z,99666.42
2023-06-29T08:45:24.861Z,99664.22
2023-06-29T08:48:32.208Z,99667.28
2023-06-29T08:51:40.383Z,99680.31
2023-06-29T08:54:48.357Z,99672.75
2023-06-29T08:57:54.390Z,99678.65
2023-06-29T09:01:04.289Z,99662.86
2023-06-29T09:04:10.460Z,99658.27
2023-06-29T09:07:16.409Z,99652.25
2023-06-29T09:10:23.417Z,99654.56
2023-06-29T09:13:30.988Z,99653.72
2023-06-29T09:16:39.081Z,99660.08
2023-06-29T09:19:43.867Z,99650.59
2023-06-29T09:22:49.929Z,99643.89
2023-06-29T09:25:56.216Z,99653.17
2023-06-29T09:29:03.111Z,99655.98
2023-06-29T09:32:17.359Z,99657.08
2023-06-29T09:35:24.074Z,99658.62
2023-06-29T09:38:32.609Z,99660.75
2023-06-29T09:41:38.434Z,99657.65
2023-06-29T09:44:44.735Z,99657.07
2023-06-29T09:51:07.120Z,99664.45
2023-06-29T09:54:17.652Z,99663.27
2023-06-29T09:57:23.752Z,99668.66
2023-06-29T10:00:30.810Z,99666.08
2023-06-29T10:03:39.632Z,99658.00
2023-06-29T10:06:50.004Z,99651.09
2023-06-29T10:09:59.657Z,99651.58
2023-06-29T10:13:09.301Z,99640.34
2023-06-29T10:16:15.577Z,99639.56
2023-06-29T10:19:37.803Z,99639.88
2023-06-29T10:22:44.386Z,99641.84
2023-06-29T10:25:52.259Z,99625.35
2023-06-29T10:28:58.653Z,99636.23
2023-06-29T10:32:05.219Z,99624.80
2023-06-29T10:35:20.526Z,99623.20
2023-06-29T10:38:28.905Z,99617.14
2023-06-29T10:41:44.278Z,99618.89
2023-06-29T10:44:53.035Z,99608.64
2023-06-29T10:48:18.168Z,99605.63
2023-06-29T10:51:24.706Z,99606.78
2023-06-29T10:54:32.149Z,99606.54
2023-06-29T10:57:44.567Z,99606.00
2023-06-29T11:00:50.128Z,99607.39
2023-06-29T11:03:56.359Z,99602.09
2023-06-29T11:07:01.414Z,99599.86
2023-06-29T11:10:17.536Z,99597.62
2023-06-29T11:13:25.811Z,99604.04
2023-06-29T11:16:32.477Z,99609.36
2023-06-29T11:19:46.806Z,99610.19
2023-06-29T11:22:53.115Z,99600.16
2023-06-29T11:26:00.667Z,99599.02
2023-06-29T11:29:08.993Z,99603.75
2023-06-29T11:32:19.085Z,99591.76
2023-06-29T11:35:30.658Z,99602.11
2023-06-29T11:38:37.419Z,99589.50
2023-06-29T11:41:46.121Z,99595.94
2023-06-29T11:44:52.516Z,99602.38
2023-06-29T11:47:59.962Z,99594.79
2023-06-29T11:51:07.318Z,99587.27
2023-06-29T11:54:15.070Z,99596.21
2023-06-29T11:57:22.779Z,99590.35
2023-06-29T12:00:33.339Z,99583.10
2023-06-29T12:03:39.539Z,99586.16
2023-06-29T12:06:46.458Z,99596.80
2023-06-29T12:09:53.928Z,99591.21
2023-06-29T12:13:07.461Z,99586.45
2023-06-29T12:19:29.903Z,99580.86
2023-06-29T12:22:38.329Z,99592.30
2023-06-29T12:25:46.968Z,99587.85
2023-06-29T12:28:54.367Z,99590.35
2023-06-29T12:32:02.696Z,99583.66
2023-06-29T12:35:09.932Z,99582.53
2023-06-29T12:38:14.663Z,99582.77
2023-06-29T12:41:21.369Z,99585.33
2023-06-29T12:44:28.303Z,99579.73
2023-06-29T12:47:34.831Z,99586.73
2023-06-29T12:50:40.820Z,99584.47
2023-06-29T12:53:46.883Z,99582.25
2023-06-29T12:56:55.533Z,99580.57
2023-06-29T13:00:02.578Z,99585.88
2023-06-29T13:03:10.953Z,99579.45
2023-06-29T13:06:17.094Z,99579.73
2023-06-29T13:09:23.232Z,99573.00
2023-06-29T13:12:30.124Z,99574.97
2023-06-29T13:15:36.017Z,99576.10
2023-06-29T13:18:43.822Z,99567.16
2023-06-29T13:21:51.079Z,99557.09
2023-06-29T13:24:56.525Z,99554.59
2023-06-29T13:28:03.466Z,99543.94
2023-06-29T13:31:09.370Z,99530.80
2023-06-29T13:34:16.101Z,99534.13
2023-06-29T13:37:22.717Z,99527.98
2023-06-29T13:40:29.376Z,99518.48
2023-06-29T13:43:35.891Z,99518.18
2023-06-29T13:46:45.155Z,99512.31
2023-06-29T13:49:52.108Z,99518.75
2023-06-29T13:52:59.374Z,99519.05
2023-06-29T13:56:05.497Z,99507.80
2023-06-29T13:59:16.691Z,99513.05
2023-06-29T14:02:21.693Z,99510.23
2023-06-29T14:05:27.861Z,99506.62
2023-06-29T14:08:33.262Z,99503.03
2023-06-29T14:11:40.372Z,99503.39
2023-06-29T14:14:51.014Z,99504.53
2023-06-29T14:17:57.311Z,99504.83
2023-06-29T14:21:05.017Z,99499.23
2023-06-29T14:24:11.376Z,99497.80
2023-06-29T14:27:17.529Z,99496.38
2023-06-29T14:30:26.202Z,99494.64
2023-06-29T14:33:32.650Z,99495.16
2023-06-29T14:36:37.915Z,99499.07
2023-06-29T14:39:44.303Z,99498.23
2023-06-29T14:42:51.701Z,99503.31
2023-06-29T14:45:56.013Z,99510.92
2023-06-29T14:49:02.828Z,99505.64
2023-06-29T14:52:09.189Z,99503.39
2023-06-29T14:55:15.561Z,99504.54
2023-06-29T14:58:21.697Z,99505.39
2023-06-29T15:01:28.888Z,99493.39
2023-06-29T15:04:34.727Z,99489.52
2023-06-29T15:07:40.797Z,99493.39
2023-06-29T15:10:46.382Z,99489.47
2023-06-29T15:13:54.822Z,99489.98
2023-06-29T15:17:01.636Z,99490.19
2023-06-29T15:20:08.433Z,99490.39
2023-06-29T15:23:14.450Z,99489.84
2023-06-29T15:26:18.735Z,99498.69
2023-06-29T15:29:18.611Z,99493.06
2023-06-29T15:32:06.302Z,99487.16
2023-06-29T15:34:59.158Z,99479.00
2023-06-29T15:37:47.421Z,99487.30
2023-06-29T15:40:39.801Z,99491.70
2023-06-29T15:43:28.582Z,99486.64
2023-06-29T15:46:22.193Z,99494.41
2023-06-29T15:49:14.804Z,99494.10
2023-06-29T15:52:21.396Z,99496.03
2023-06-29T15:55:26.971Z,99499.09
2023-06-29T15:58:35.303Z,99501.02
2023-06-29T16:01:41.843Z,99494.59
2023-06-29T16:04:50.150Z,99497.12
2023-06-29T16:08:01.232Z,99491.74
2023-06-29T16:11:06.554Z,99486.06
2023-06-29T16:14:12.795Z,99487.22
2023-06-29T16:17:18.790Z,99484.18
2023-06-29T16:20:26.026Z,99481.69
2023-06-29T16:23:33.133Z,99483.95
2023-06-29T16:26:39.046Z,99476.14
2023-06-29T16:29:44.685Z,99479.48
2023-06-29T16:32:51.942Z,99476.70
2023-06-29T16:36:00.188Z,99487.55
2023-06-29T16:39:05.215Z,99486.17
2023-06-29T16:42:12.037Z,99482.84
2023-06-29T16:45:18.282Z,99484.23
2023-06-29T16:48:23.821Z,99476.41
2023-06-29T16:51:28.767Z,99480.88
2023-06-29T16:54:36.062Z,99475.52
2023-06-29T16:57:41.858Z,99469.92
2023-06-29T17:00:48.432Z,99471.52
2023-06-29T17:03:56.580Z,99467.05
2023-06-29T17:07:02.622Z,99465.65
2023-06-29T17:10:09.048Z,99458.95
2023-06-29T17:13:14.970Z,99452.27
2023-06-29T17:16:21.740Z,99451.62
2023-06-29T17:19:27.449Z,99450.16
2023-06-29T17:22:33.442Z,99454.27
2023-06-29T17:25:39.578Z,99445.82
2023-06-29T17:28:46.291Z,99452.70
2023-06-29T17:31:52.545Z,99457.05
2023-06-29T17:34:57.664Z,99456.64
2023-06-29T17:37:57.335Z,99455.42
2023-06-29T17:40:50.945Z,99448.09
2023-06-29T17:43:59.072Z,99463.64
2023-06-29T17:47:05.217Z,99465.77
2023-06-29T17:50:11.407Z,99461.70
2023-06-29T17:53:18.942Z,99447.87
2023-06-29T17:56:26.520Z,99453.22
2023-06-29T17:59:33.362Z,99453.28
2023-06-29T18:02:40.420Z,99447.84
2023-06-29T18:05:47.175Z,99451.33
2023-06-29T18:08:53.267Z,99456.25
2023-06-29T18:12:04.177Z,99458.08
2023-06-29T18:15:09.585Z,99460.41
2023-06-29T18:18:17.316Z,99464.93
2023-06-29T18:21:25.249Z,99466.34
2023-06-29T18:24:31.903Z,99459.47
2023-06-29T18:27:38.040Z,99456.80
2023-06-29T18:30:43.962Z,99459.20
2023-06-29T18:33:50.999Z,99458.23
2023-06-29T18:36:56.880Z,99465.03
2023-06-29T18:40:03.418Z,99469.88
2023-06-29T18:43:08.542Z,99470.89
2023-06-29T18:46:15.791Z,99480.45
2023-06-29T18:49:21.966Z,99478.69
2023-06-29T18:52:31.074Z,99483.53
2023-06-29T18:55:39.973Z,99490.32
2023-06-29T18:58:47.031Z,99492.42
2023-06-29T19:01:54.155Z,99495.61
2023-06-29T19:05:00.816Z,99503.28
2023-06-29T19:08:07.350Z,99500.41
2023-06-29T19:11:15.088Z,99509.98
2023-06-29T19:14:23.206Z,99506.00
2023-06-29T19:17:28.030Z,99512.56
2023-06-29T19:20:34.865Z,99520.52
2023-06-29T19:23:40.844Z,99518.23
2023-06-29T19:26:49.091Z,99514.86
2023-06-29T19:29:55.747Z,99521.74
2023-06-29T19:33:03.103Z,99521.66
2023-06-29T19:36:10.954Z,99527.16
2023-06-29T19:39:17.507Z,99527.41
2023-06-29T19:42:24.711Z,99519.88
2023-06-29T19:45:31.804Z,99518.45
2023-06-29T19:48:39.805Z,99521.14
2023-06-29T19:51:46.868Z,99524.40
2023-06-29T19:54:54.309Z,99517.72
2023-06-29T19:58:00.135Z,99515.98
2023-06-29T20:01:06.282Z,99512.87
2023-06-29T20:04:12.445Z,99509.79
2023-06-29T20:07:19.303Z,99502.27
2023-06-29T20:10:25.708Z,99497.33
2023-06-29T20:13:30.864Z,99494.56
2023-06-29T20:16:36.211Z,99490.48
2023-06-29T20:19:42.625Z,99491.88
2023-06-29T20:22:49.557Z,99486.38
2023-06-29T20:25:57.460Z,99479.99
2023-06-29T20:29:03.509Z,99477.23
2023-06-29T20:32:10.958Z,99470.55
2023-06-29T20:35:17.889Z,99470.80
2023-06-29T20:38:23.727Z,99467.66
2023-06-29T20:41:30.515Z,99469.54
2023-06-29T20:44:38.222Z,99470.59
2023-06-29T20:47:44.579Z,99462.99
2023-06-29T20:50:53.493Z,99453.02
2023-06-29T20:53:59.520Z,99455.78
2023-06-29T20:57:06.027Z,99458.23
2023-06-29T21:00:11.863Z,99451.23
2023-06-29T21:03:19.939Z,99448.72
2023-06-29T21:06:26.144Z,99456.73
2023-06-29T21:09:33.329Z,99450.59
2023-06-29T21:12:41.361Z,99456.89
2023-06-29T21:15:47.308Z,99456.36
2023-06-29T21:18:55.743Z,99451.69
2023-06-29T21:22:01.661Z,99453.96
2023-06-29T21:25:08.851Z,99452.86
2023-06-29T21:28:15.248Z,99445.95
2023-06-29T21:31:21.039Z,99446.27
2023-06-29T21:34:28.149Z,99442.12
2023-06-29T21:37:33.942Z,99442.04
2023-06-29T21:40:40.094Z,99441.52
2023-06-29T21:43:47.175Z,99446.52
2023-06-29T21:46:54.626Z,99438.74
2023-06-29T21:50:01.168Z,99437.12
2023-06-29T21:53:07.121Z,99437.97
2023-06-29T21:56:25.080Z,99430.44
2023-06-29T21:59:20.782Z,99428.81
2023-06-29T22:02:27.405Z,99426.34
2023-06-29T22:05:33.500Z,99423.03
2023-06-29T22:08:39.789Z,99424.81
2023-06-29T22:11:47.370Z,99428.16
2023-06-29T22:14:55.095Z,99418.83
2023-06-29T22:18:04.879Z,99422.81
2023-06-29T22:21:12.461Z,99422.00
2023-06-29T22:24:19.171Z,99414.55
2023-06-29T22:27:26.185Z,99418.17
2023-06-29T22:30:33.195Z,99414.02
2023-06-29T22:33:39.196Z,99416.22
2023-06-29T22:36:45.378Z,99425.69
2023-06-29T22:39:51.546Z,99417.92
2023-06-29T22:42:56.701Z,99410.15
2023-06-29T22:46:03.085Z,99415.40
2023-06-29T22:49:09.541Z,99413.70
2023-06-29T22:52:16.102Z,99411.17
2023-06-29T22:55:23.810Z,99413.38
2023-06-29T22:58:36.749Z,99419.68
2023-06-29T23:01:43.611Z,99430.39
2023-06-29T23:04:51.468Z,99424.81
2023-06-29T23:07:59.829Z,99416.97
2023-06-29T23:11:06.180Z,99420.76
2023-06-29T23:14:19.287Z,99425.40
2023-06-29T23:17:26.427Z,99430.33
2023-06-29T23:20:34.313Z,99427.56
2023-06-29T23:23:40.455Z,99425.89
2023-06-29T23:26:47.291Z,99418.65
2023-06-29T23:29:53.610Z,99415.84
2023-06-29T23:33:00.466Z,99423.53
2023-06-29T23:36:05.531Z,99419.02
2023-06-29T23:39:13.939Z,99417.83
2023-06-29T23:42:22.285Z,99418.32
2023-06-29T23:45:29.561Z,99408.81
2023-06-29T23:48:38.640Z,99420.36
2023-06-29T23:51:38.801Z,99419.70
2023-06-29T23:54:26.265Z,99422.42
2023-06-29T23:57:20.451Z,99420.67
